createdAt,value
2023-03-26T00:01:36.411Z,32.13
2023-03-26T00:04:03.694Z,25.98
2023-03-26T00:06:33.866Z,24.27
2023-03-26T00:09:00.911Z,31.20
2023-03-26T00:11:28.356Z,28.50
2023-03-26T00:13:57.922Z,23.02
2023-03-26T00:16:26.495Z,27.65
2023-03-26T00:18:53.549Z,25.08
2023-03-26T00:21:22.099Z,25.08
2023-03-26T00:23:49.325Z,20.58
2023-03-26T00:26:17.648Z,24.02
2023-03-26T00:28:44.683Z,24.75
2023-03-26T00:31:13.623Z,24.27
2023-03-26T00:33:41.017Z,20.83
2023-03-26T00:36:10.887Z,23.90
2023-03-26T00:38:39.204Z,23.60
2023-03-26T00:41:07.243Z,22.38
2023-03-26T00:43:35.196Z,16.35
2023-03-26T00:46:02.323Z,23.73
2023-03-26T00:48:44.415Z,21.02
2023-03-26T00:51:12.721Z,23.58
2023-03-26T00:53:41.249Z,20.40
2023-03-26T00:56:08.444Z,17.40
2023-03-26T00:58:35.008Z,26.20
2023-03-26T01:01:06.173Z,21.63
2023-03-26T01:03:36.010Z,18.83
2023-03-26T01:06:09.541Z,20.80
2023-03-26T01:08:36.081Z,13.40
2023-03-26T01:11:07.222Z,17.42
2023-03-26T01:13:36.718Z,17.42
2023-03-26T01:16:07.736Z,14.48
2023-03-26T01:18:40.964Z,18.52
2023-03-26T01:21:09.205Z,21.38
2023-03-26T01:23:46.626Z,16.67
2023-03-26T01:26:16.004Z,19.17
2023-03-26T01:28:43.132Z,22.77
2023-03-26T01:31:20.169Z,21.60
2023-03-26T01:33:50.485Z,20.38
2023-03-26T01:36:21.230Z,18.95
2023-03-26T01:38:48.257Z,25.83
2023-03-26T01:41:19.799Z,22.60
2023-03-26T01:44:05.723Z,17.35
2023-03-26T01:46:36.322Z,16.63
2023-03-26T01:49:06.903Z,17.40
2023-03-26T01:51:35.538Z,19.67
2023-03-26T01:54:02.958Z,17.48
2023-03-26T01:56:35.670Z,16.02
2023-03-26T01:59:11.412Z,17.70
2023-03-26T02:01:38.140Z,14.82
2023-03-26T02:04:23.201Z,14.25
2023-03-26T02:09:18.623Z,20.23
2023-03-26T02:11:45.419Z,16.92
2023-03-26T02:14:13.170Z,17.65
2023-03-26T02:16:40.107Z,16.63
2023-03-26T02:19:15.489Z,18.83
2023-03-26T02:21:42.728Z,19.05
2023-03-26T02:24:09.295Z,15.88
2023-03-26T02:26:37.738Z,18.55
2023-03-26T02:29:10.633Z,15.93
2023-03-26T02:31:39.008Z,17.60
2023-03-26T02:34:05.776Z,15.65
2023-03-26T02:36:36.157Z,16.70
2023-03-26T02:39:04.544Z,21.23
2023-03-26T02:41:34.677Z,20.10
2023-03-26T02:44:06.404Z,20.77
2023-03-26T02:46:51.876Z,17.50
2023-03-26T02:49:36.838Z,16.38
2023-03-26T02:52:06.516Z,14.68
2023-03-26T02:54:35.191Z,15.93
2023-03-26T02:57:22.818Z,16.98
2023-03-26T02:59:58.292Z,11.55
2023-03-26T03:02:50.528Z,19.58
2023-03-26T03:05:20.412Z,16.35
2023-03-26T03:07:58.519Z,16.30
2023-03-26T03:10:27.634Z,19.52
2023-03-26T03:13:06.063Z,17.73
2023-03-26T03:15:32.623Z,16.15
2023-03-26T03:17:59.083Z,12.82
2023-03-26T03:20:30.332Z,16.73
2023-03-26T03:22:56.939Z,15.18
2023-03-26T03:25:23.602Z,17.42
2023-03-26T03:27:50.631Z,23.92
2023-03-26T03:30:17.212Z,16.73
2023-03-26T03:32:46.849Z,20.17
2023-03-26T03:35:18.022Z,17.08
2023-03-26T03:37:48.921Z,21.15
2023-03-26T03:40:15.618Z,13.90
2023-03-26T03:42:42.908Z,17.05
2023-03-26T03:45:11.501Z,14.15
2023-03-26T03:47:56.831Z,16.80
2023-03-26T03:50:33.098Z,18.50
2023-03-26T03:53:26.347Z,17.60
2023-03-26T03:55:55.774Z,13.00
2023-03-26T03:58:28.473Z,11.77
2023-03-26T04:01:04.355Z,15.07
2023-03-26T04:03:51.744Z,17.33
2023-03-26T04:06:21.974Z,19.25
2023-03-26T04:08:52.198Z,10.55
2023-03-26T04:11:20.674Z,18.80
2023-03-26T04:14:05.851Z,18.75
2023-03-26T04:16:52.684Z,19.90
2023-03-26T04:19:19.427Z,19.52
2023-03-26T04:21:45.985Z,20.17
2023-03-26T04:24:12.834Z,29.92
2023-03-26T04:27:01.098Z,17.70
2023-03-26T04:29:38.398Z,17.77
2023-03-26T04:32:08.288Z,13.55
2023-03-26T04:34:35.234Z,16.15
2023-03-26T04:37:09.643Z,16.13
2023-03-26T04:39:44.938Z,12.10
2023-03-26T04:42:41.841Z,18.92
2023-03-26T04:45:30.365Z,14.02
2023-03-26T04:47:58.301Z,15.48
2023-03-26T04:50:26.562Z,13.32
2023-03-26T04:52:54.497Z,14.57
2023-03-26T04:55:25.797Z,13.70
2023-03-26T04:58:05.888Z,14.55
2023-03-26T05:00:55.390Z,21.17
2023-03-26T05:03:24.662Z,14.23
2023-03-26T05:05:51.564Z,10.60
2023-03-26T05:08:18.331Z,10.95
2023-03-26T05:10:44.841Z,11.68
2023-03-26T05:13:21.200Z,14.18
2023-03-26T05:15:50.912Z,11.43
2023-03-26T05:18:53.206Z,9.93
2023-03-26T05:21:20.973Z,9.95
2023-03-26T05:23:47.739Z,14.30
2023-03-26T05:26:19.399Z,14.68
2023-03-26T05:28:46.346Z,13.18
2023-03-26T05:31:24.129Z,13.77
2023-03-26T05:33:55.171Z,16.17
2023-03-26T05:36:22.493Z,15.45
2023-03-26T05:38:59.787Z,18.58
2023-03-26T05:41:55.482Z,16.00
2023-03-26T05:44:28.245Z,14.20
2023-03-26T05:46:55.652Z,12.55
2023-03-26T05:49:25.944Z,13.20
2023-03-26T05:51:55.416Z,11.35
2023-03-26T05:54:50.976Z,18.35
2023-03-26T05:57:36.149Z,12.05
2023-03-26T06:00:39.099Z,16.00
2023-03-26T06:03:12.791Z,14.05
2023-03-26T06:06:09.627Z,13.70
2023-03-26T06:08:48.892Z,16.85
2023-03-26T06:11:29.054Z,13.60
2023-03-26T06:13:55.801Z,16.08
2023-03-26T06:16:26.175Z,11.50
2023-03-26T06:19:08.754Z,13.18
2023-03-26T06:21:48.785Z,12.02
2023-03-26T06:24:21.991Z,14.25
2023-03-26T06:27:06.679Z,12.60
2023-03-26T06:29:53.159Z,12.82
2023-03-26T06:32:32.506Z,10.38
2023-03-26T06:35:05.600Z,11.45
2023-03-26T06:37:32.334Z,17.42
2023-03-26T06:40:01.372Z,17.85
2023-03-26T06:45:55.360Z,10.75
2023-03-26T06:48:42.385Z,9.15
2023-03-26T06:51:27.525Z,11.73
2023-03-26T06:54:17.525Z,10.60
2023-03-26T06:56:53.164Z,11.48
2023-03-26T06:59:37.450Z,13.17
2023-03-26T07:02:22.609Z,9.05
2023-03-26T07:05:07.977Z,11.10
2023-03-26T07:07:53.525Z,12.18
2023-03-26T07:10:55.870Z,14.48
2023-03-26T07:13:48.723Z,13.18
2023-03-26T07:16:33.778Z,9.65
2023-03-26T07:19:23.408Z,11.40
2023-03-26T07:21:51.162Z,11.10
2023-03-26T07:24:38.042Z,13.32
2023-03-26T07:27:27.214Z,13.52
2023-03-26T07:30:04.625Z,11.68
2023-03-26T07:33:03.834Z,7.88
2023-03-26T07:36:19.584Z,8.40
2023-03-26T07:39:07.770Z,9.77
2023-03-26T07:42:11.834Z,11.13
2023-03-26T07:45:03.159Z,10.82
2023-03-26T07:47:57.171Z,10.93
2023-03-26T07:50:34.930Z,10.02
2023-03-26T07:53:07.661Z,10.70
2023-03-26T07:55:57.599Z,9.20
2023-03-26T07:58:38.984Z,10.07
2023-03-26T08:01:31.681Z,11.38
2023-03-26T08:04:26.318Z,8.40
2023-03-26T08:07:28.582Z,9.75
2023-03-26T08:10:24.222Z,8.52
2023-03-26T08:13:10.119Z,7.70
2023-03-26T08:15:41.920Z,6.28
2023-03-26T08:18:21.973Z,9.45
2023-03-26T08:20:54.364Z,8.65
2023-03-26T08:23:27.874Z,7.47
2023-03-26T08:25:57.282Z,8.80
2023-03-26T08:28:37.996Z,9.48
2023-03-26T08:31:05.446Z,4.40
2023-03-26T08:33:32.505Z,5.35
2023-03-26T08:35:59.070Z,5.20
2023-03-26T08:38:28.453Z,6.47
2023-03-26T08:40:55.278Z,5.60
2023-03-26T08:43:21.925Z,4.40
2023-03-26T08:46:07.445Z,4.75
2023-03-26T08:48:47.907Z,4.97
2023-03-26T08:51:43.793Z,7.57
2023-03-26T08:54:25.468Z,8.35
2023-03-26T08:57:10.703Z,5.47
2023-03-26T09:02:18.915Z,3.85
2023-03-26T09:04:46.511Z,6.53
2023-03-26T09:07:12.915Z,3.92
2023-03-26T09:10:02.975Z,4.90
2023-03-26T09:12:50.420Z,7.40
2023-03-26T09:15:43.256Z,7.88
2023-03-26T09:18:25.342Z,4.55
2023-03-26T09:20:54.969Z,3.40
2023-03-26T09:23:22.837Z,5.43
2023-03-26T09:25:58.525Z,7.80
2023-03-26T09:28:43.376Z,7.60
2023-03-26T09:31:28.454Z,3.60
2023-03-26T09:34:07.691Z,6.55
2023-03-26T09:36:46.452Z,5.45
2023-03-26T09:39:26.987Z,6.10
2023-03-26T09:42:16.547Z,4.80
2023-03-26T09:45:01.733Z,3.13
2023-03-26T09:47:54.192Z,6.25
2023-03-26T09:50:37.308Z,5.55
2023-03-26T09:53:06.682Z,3.78
2023-03-26T09:55:33.218Z,4.88
2023-03-26T09:58:04.772Z,5.70
2023-03-26T10:00:40.490Z,4.35
2023-03-26T10:03:18.791Z,4.53
2023-03-26T10:05:52.544Z,4.70
2023-03-26T10:08:37.150Z,4.75
2023-03-26T10:11:22.948Z,5.72
2023-03-26T10:13:55.330Z,4.90
2023-03-26T10:16:31.376Z,3.85
2023-03-26T10:19:28.760Z,8.90
2023-03-26T10:22:15.632Z,5.50
2023-03-26T10:25:01.383Z,4.20
2023-03-26T10:27:46.436Z,3.10
2023-03-26T10:30:45.333Z,5.20
2023-03-26T10:33:14.535Z,4.93
2023-03-26T10:35:46.975Z,4.93
2023-03-26T10:38:21.295Z,7.47
2023-03-26T10:41:11.521Z,5.30
2023-03-26T10:44:07.816Z,3.65
2023-03-26T10:46:41.609Z,2.63
2023-03-26T10:49:27.925Z,4.40
2023-03-26T10:52:06.760Z,4.57
2023-03-26T10:54:46.328Z,4.32
2023-03-26T10:57:25.317Z,3.97
2023-03-26T10:59:54.145Z,4.45
2023-03-26T11:02:29.502Z,6.93
2023-03-26T11:05:15.752Z,2.55
2023-03-26T11:10:14.625Z,4.43
2023-03-26T11:12:52.582Z,4.20
2023-03-26T11:15:22.847Z,3.00
2023-03-26T11:17:52.210Z,6.22
2023-03-26T11:20:30.809Z,6.78
2023-03-26T11:23:18.027Z,5.78
2023-03-26T11:25:50.687Z,5.63
2023-03-26T11:28:31.459Z,4.63
2023-03-26T11:31:06.974Z,3.55
2023-03-26T11:34:36.909Z,4.03
2023-03-26T11:36:31.999Z,3.38
2023-03-26T11:38:59.815Z,4.20
2023-03-26T11:41:32.208Z,3.00
2023-03-26T11:44:21.722Z,5.00
2023-03-26T11:46:50.479Z,4.63
2023-03-26T11:49:18.457Z,4.10
2023-03-26T11:51:47.509Z,3.60
2023-03-26T11:54:14.818Z,6.30
2023-03-26T11:57:04.524Z,5.38
2023-03-26T11:59:55.604Z,4.55
2023-03-26T12:02:35.742Z,3.90
2023-03-26T12:05:21.931Z,3.45
2023-03-26T12:07:58.878Z,3.67
2023-03-26T12:10:25.640Z,3.60
2023-03-26T12:12:58.040Z,2.70
2023-03-26T12:15:24.870Z,3.67
2023-03-26T12:17:53.713Z,4.78
2023-03-26T12:20:26.691Z,2.92
2023-03-26T12:22:54.021Z,3.35
2023-03-26T12:25:22.369Z,5.35
2023-03-26T12:27:50.422Z,4.93
2023-03-26T12:30:28.612Z,4.03
2023-03-26T12:32:57.327Z,2.30
2023-03-26T12:35:27.332Z,3.20
2023-03-26T12:37:54.773Z,5.75
2023-03-26T12:40:30.547Z,5.18
2023-03-26T12:44:56.210Z,3.00
2023-03-26T12:47:54.416Z,5.15
2023-03-26T12:48:41.208Z,6.93
2023-03-26T12:51:13.958Z,3.72
2023-03-26T12:54:06.680Z,7.10
2023-03-26T12:56:40.792Z,7.30
2023-03-26T12:59:18.581Z,4.93
2023-03-26T13:02:00.172Z,5.30
2023-03-26T13:04:27.530Z,4.43
2023-03-26T13:07:01.213Z,7.20
2023-03-26T13:12:07.647Z,6.35
2023-03-26T13:14:43.928Z,8.75
2023-03-26T13:17:30.955Z,11.23
2023-03-26T13:20:12.382Z,5.93
2023-03-26T13:22:43.644Z,7.88
2023-03-26T13:25:22.405Z,5.82
2023-03-26T13:27:52.094Z,9.25
2023-03-26T13:30:38.970Z,10.98
2023-03-26T13:33:23.849Z,8.75
2023-03-26T13:35:50.927Z,13.65
2023-03-26T13:38:20.475Z,12.13
2023-03-26T13:40:57.792Z,11.02
2023-03-26T13:43:24.458Z,13.32
2023-03-26T13:45:53.585Z,11.80
2023-03-26T13:48:25.659Z,13.95
2023-03-26T13:51:05.276Z,13.75
2023-03-26T13:53:35.666Z,9.38
2023-03-26T13:56:02.267Z,14.18
2023-03-26T13:58:34.400Z,13.55
2023-03-26T14:01:09.568Z,11.40
2023-03-26T14:03:55.046Z,12.10
2023-03-26T14:06:21.682Z,10.07
2023-03-26T14:08:52.286Z,13.82
2023-03-26T14:11:37.575Z,12.18
2023-03-26T14:16:40.198Z,12.70
2023-03-26T14:19:25.935Z,15.43
2023-03-26T14:21:55.353Z,18.55
2023-03-26T14:24:40.948Z,14.75
2023-03-26T14:27:24.448Z,14.93
2023-03-26T14:29:57.030Z,10.95
2023-03-26T14:32:24.794Z,9.35
2023-03-26T14:35:00.996Z,12.98
2023-03-26T14:37:46.429Z,11.13
2023-03-26T14:40:25.977Z,16.58
2023-03-26T14:43:11.372Z,14.98
2023-03-26T14:45:40.699Z,15.52
2023-03-26T14:48:33.913Z,13.50
2023-03-26T14:51:18.874Z,10.95
2023-03-26T14:53:48.676Z,10.30
2023-03-26T14:56:21.448Z,10.85
2023-03-26T14:59:03.050Z,14.88
2023-03-26T15:01:45.062Z,16.60
2023-03-26T15:04:26.740Z,10.73
2023-03-26T15:06:53.319Z,9.63
2023-03-26T15:09:38.486Z,16.13
2023-03-26T15:14:58.323Z,12.17
2023-03-26T15:17:36.914Z,9.07
2023-03-26T15:20:26.678Z,11.35
2023-03-26T15:23:11.858Z,9.05
2023-03-26T15:25:38.708Z,11.48
2023-03-26T15:28:11.554Z,14.55
2023-03-26T15:30:57.940Z,15.32
2023-03-26T15:33:35.111Z,13.18
2023-03-26T15:36:21.534Z,12.82
2023-03-26T15:38:57.195Z,13.52
2023-03-26T15:41:29.885Z,12.10
2023-03-26T15:46:37.843Z,11.98
2023-03-26T15:49:14.461Z,12.00
2023-03-26T15:51:46.814Z,10.00
2023-03-26T15:54:14.094Z,14.98
2023-03-26T15:56:49.362Z,15.80
2023-03-26T15:59:37.083Z,12.00
2023-03-26T16:02:07.601Z,6.07
2023-03-26T16:04:34.266Z,7.25
2023-03-26T16:07:05.576Z,11.30
2023-03-26T16:09:32.988Z,15.40
2023-03-26T16:12:17.546Z,11.38
2023-03-26T16:14:45.939Z,11.73
2023-03-26T16:17:32.669Z,9.15
2023-03-26T16:20:31.646Z,9.10
2023-03-26T16:23:04.626Z,9.32
2023-03-26T16:25:34.966Z,10.93
2023-03-26T16:28:10.407Z,8.55
2023-03-26T16:30:37.529Z,9.73
2023-03-26T16:33:18.536Z,9.18
2023-03-26T16:35:47.899Z,13.88
2023-03-26T16:38:15.043Z,8.73
2023-03-26T16:40:53.744Z,11.02
2023-03-26T16:43:39.106Z,9.88
2023-03-26T16:46:18.188Z,11.68
2023-03-26T16:49:03.251Z,7.38
2023-03-26T16:51:48.520Z,12.05
2023-03-26T16:54:39.725Z,15.90
2023-03-26T16:57:10.973Z,6.97
2023-03-26T16:59:46.856Z,9.80
2023-03-26T17:02:36.873Z,7.35
2023-03-26T17:05:12.800Z,9.35
2023-03-26T17:07:43.574Z,12.45
2023-03-26T17:10:30.809Z,12.07
2023-03-26T17:13:01.407Z,6.50
2023-03-26T17:15:28.014Z,11.80
2023-03-26T17:17:57.436Z,6.13
2023-03-26T17:20:33.390Z,8.60
2023-03-26T17:23:04.891Z,10.10
2023-03-26T17:25:37.720Z,9.48
2023-03-26T17:28:35.368Z,8.88
2023-03-26T17:31:11.849Z,10.38
2023-03-26T17:33:42.020Z,17.02
2023-03-26T17:36:11.732Z,28.40
2023-03-26T17:38:45.255Z,22.00
2023-03-26T17:41:12.718Z,10.45
2023-03-26T17:43:42.430Z,10.75
2023-03-26T17:46:29.863Z,6.93
2023-03-26T17:49:15.712Z,9.52
2023-03-26T17:51:45.086Z,9.75
2023-03-26T17:54:20.788Z,5.18
2023-03-26T17:56:47.746Z,10.55
2023-03-26T17:59:18.063Z,7.07
2023-03-26T18:01:46.126Z,8.45
2023-03-26T18:04:18.723Z,7.63
2023-03-26T18:06:54.276Z,8.20
2023-03-26T18:09:36.148Z,6.65
2023-03-26T18:12:02.753Z,6.70
2023-03-26T18:14:29.301Z,5.38
2023-03-26T18:17:00.276Z,9.23
2023-03-26T18:19:27.331Z,7.10
2023-03-26T18:22:03.173Z,7.65
2023-03-26T18:24:31.518Z,11.43
2023-03-26T18:27:00.094Z,6.75
2023-03-26T18:29:26.783Z,6.85
2023-03-26T18:31:58.369Z,6.97
2023-03-26T18:34:26.137Z,20.67
2023-03-26T18:37:08.567Z,8.25
2023-03-26T18:39:35.342Z,6.47
2023-03-26T18:42:01.891Z,8.45
2023-03-26T18:44:28.555Z,5.90
2023-03-26T18:46:55.393Z,5.65
2023-03-26T18:49:23.941Z,7.00
2023-03-26T18:51:57.135Z,8.13
2023-03-26T18:54:24.741Z,7.18
2023-03-26T18:56:52.812Z,6.50
2023-03-26T18:59:22.237Z,7.13
2023-03-26T19:01:48.930Z,4.78
2023-03-26T19:04:16.382Z,12.00
2023-03-26T19:06:43.848Z,8.10
2023-03-26T19:09:23.665Z,8.70
2023-03-26T19:11:57.176Z,8.23
2023-03-26T19:14:25.351Z,8.30
2023-03-26T19:17:00.050Z,8.93
2023-03-26T19:19:29.223Z,8.20
2023-03-26T19:21:58.399Z,7.13
2023-03-26T19:24:26.492Z,9.75
2023-03-26T19:26:53.037Z,9.88
2023-03-26T19:29:28.800Z,8.85
2023-03-26T19:32:02.130Z,8.80
2023-03-26T19:34:33.851Z,10.63
2023-03-26T19:37:01.576Z,9.93
2023-03-26T19:39:54.962Z,10.90
2023-03-26T19:42:24.127Z,7.70
2023-03-26T19:44:51.779Z,9.88
2023-03-26T19:47:20.663Z,7.03
2023-03-26T19:50:01.486Z,8.98
2023-03-26T19:52:32.411Z,6.93
2023-03-26T19:55:03.773Z,10.98
2023-03-26T19:57:38.176Z,7.82
2023-03-26T20:00:09.249Z,6.25
2023-03-26T20:02:36.004Z,6.22
2023-03-26T20:05:02.790Z,9.05
2023-03-26T20:07:35.502Z,8.80
2023-03-26T20:10:05.572Z,10.98
2023-03-26T20:12:32.429Z,7.07
2023-03-26T20:14:58.913Z,6.80
2023-03-26T20:17:25.413Z,8.02
2023-03-26T20:19:54.260Z,7.60
2023-03-26T20:22:21.109Z,6.80
2023-03-26T20:24:47.651Z,6.50
2023-03-26T20:27:14.604Z,5.28
2023-03-26T20:29:42.172Z,6.90
2023-03-26T20:32:19.295Z,6.28
2023-03-26T20:34:49.199Z,7.32
2023-03-26T20:37:18.643Z,5.13
2023-03-26T20:39:45.796Z,8.90
2023-03-26T20:42:15.421Z,7.95
2023-03-26T20:44:42.718Z,11.40
2023-03-26T20:47:12.758Z,6.80
2023-03-26T20:49:40.334Z,5.97
2023-03-26T20:52:06.875Z,7.30
2023-03-26T20:54:33.450Z,7.13
2023-03-26T20:57:00.032Z,4.88
2023-03-26T20:59:28.293Z,6.75
2023-03-26T21:01:56.847Z,5.15
2023-03-26T21:04:24.764Z,9.80
2023-03-26T21:06:53.372Z,8.65
2023-03-26T21:09:25.413Z,7.13
2023-03-26T21:11:52.077Z,7.80
2023-03-26T21:14:30.875Z,6.43
2023-03-26T21:16:58.034Z,7.90
2023-03-26T21:19:25.173Z,9.65
2023-03-26T21:21:57.634Z,10.45
2023-03-26T21:24:33.198Z,8.88
2023-03-26T21:27:02.852Z,12.40
2023-03-26T21:29:29.485Z,8.13
2023-03-26T21:31:56.188Z,8.50
2023-03-26T21:34:22.836Z,8.15
2023-03-26T21:36:49.557Z,8.52
2023-03-26T21:39:16.578Z,5.82
2023-03-26T21:42:04.835Z,8.70
2023-03-26T21:44:33.049Z,4.30
2023-03-26T21:46:59.703Z,10.45
2023-03-26T21:49:26.501Z,7.43
2023-03-26T21:51:53.133Z,5.15
2023-03-26T21:54:27.377Z,8.02
2023-03-26T21:56:59.767Z,6.45
2023-03-26T21:59:31.876Z,5.57
2023-03-26T22:02:04.625Z,6.43
2023-03-26T22:04:36.915Z,10.38
2023-03-26T22:07:25.463Z,9.15
2023-03-26T22:09:52.185Z,4.45
2023-03-26T22:12:18.703Z,3.50
2023-03-26T22:14:45.752Z,4.00
2023-03-26T22:17:12.239Z,5.15
2023-03-26T22:19:38.768Z,3.03
2023-03-26T22:22:05.388Z,6.20
2023-03-26T22:24:32.206Z,6.25
2023-03-26T22:26:58.772Z,2.00
2023-03-26T22:29:25.443Z,5.10
2023-03-26T22:31:52.438Z,6.60
2023-03-26T22:34:19.752Z,3.33
2023-03-26T22:36:46.421Z,5.05
2023-03-26T22:39:13.038Z,4.28
2023-03-26T22:41:39.621Z,4.55
2023-03-26T22:44:19.077Z,3.67
2023-03-26T22:46:49.409Z,4.65
2023-03-26T22:49:16.561Z,5.53
2023-03-26T22:51:43.553Z,4.43
2023-03-26T22:54:10.231Z,5.07
2023-03-26T22:56:37.282Z,6.38
2023-03-26T22:59:03.929Z,5.30
2023-03-26T23:01:30.934Z,3.20
2023-03-26T23:03:58.105Z,3.28
2023-03-26T23:06:25.105Z,2.10
2023-03-26T23:08:51.708Z,9.18
2023-03-26T23:11:19.342Z,5.88
2023-03-26T23:13:46.171Z,6.25
2023-03-26T23:16:14.199Z,5.70
2023-03-26T23:18:41.296Z,7.00
2023-03-26T23:21:12.820Z,4.53
2023-03-26T23:23:39.769Z,4.40
2023-03-26T23:26:06.985Z,4.18
2023-03-26T23:28:34.468Z,3.22
2023-03-26T23:31:02.405Z,5.78
2023-03-26T23:33:34.175Z,6.20
2023-03-26T23:36:01.268Z,5.90
2023-03-26T23:38:43.803Z,5.55
2023-03-26T23:41:15.333Z,6.63
2023-03-26T23:43:54.241Z,7.07
2023-03-26T23:46:23.449Z,4.40
2023-03-26T23:48:53.285Z,6.70
2023-03-26T23:51:20.685Z,6.07
2023-03-26T23:53:47.576Z,8.02
2023-03-26T23:56:14.142Z,7.60
2023-03-26T23:58:40.591Z,8.05
